createdAt,value
2023-01-19T00:01:13.775Z,96.63
2023-01-19T00:06:17.208Z,97.24
2023-01-19T00:11:21.749Z,96.79
2023-01-19T00:16:25.172Z,96.35
2023-01-19T00:21:28.501Z,97.00
2023-01-19T00:26:32.927Z,96.54
2023-01-19T00:31:36.072Z,96.13
2023-01-19T00:36:39.433Z,96.24
2023-01-19T00:42:01.251Z,96.47
2023-01-19T00:47:05.744Z,97.16
2023-01-19T00:52:08.899Z,96.77
2023-01-19T00:57:13.652Z,97.81
2023-01-19T01:02:17.129Z,97.58
2023-01-19T01:07:20.645Z,98.63
2023-01-19T01:12:25.532Z,97.73
2023-01-19T01:17:29.019Z,97.93
2023-01-19T01:22:32.251Z,97.03
2023-01-19T01:27:36.896Z,97.51
2023-01-19T01:32:40.425Z,97.80
2023-01-19T01:37:44.187Z,97.29
2023-01-19T01:42:48.712Z,96.99
2023-01-19T01:47:54.098Z,98.22
2023-01-19T01:53:07.149Z,98.07
2023-01-19T01:58:13.816Z,97.55
2023-01-19T02:03:17.231Z,97.44
2023-01-19T02:08:45.632Z,97.43
2023-01-19T02:13:50.198Z,96.65
2023-01-19T02:18:53.346Z,96.66
2023-01-19T02:23:59.049Z,96.15
2023-01-19T02:29:04.090Z,96.66
2023-01-19T02:34:09.542Z,96.49
2023-01-19T02:39:20.074Z,96.44
2023-01-19T02:44:25.557Z,95.67
2023-01-19T02:49:30.929Z,95.95
2023-01-19T02:54:45.947Z,95.45
2023-01-19T03:00:02.537Z,95.07
2023-01-19T03:05:25.070Z,96.00
2023-01-19T03:10:36.116Z,95.17
2023-01-19T03:15:46.790Z,95.31
2023-01-19T03:20:53.597Z,94.69
2023-01-19T03:26:02.084Z,95.03
2023-01-19T03:31:12.431Z,95.08
2023-01-19T03:36:19.854Z,94.45
2023-01-19T03:41:27.219Z,94.95
2023-01-19T03:46:32.650Z,94.88
2023-01-19T03:51:39.227Z,94.23
2023-01-19T03:56:44.990Z,93.98
2023-01-19T04:01:48.457Z,94.27
2023-01-19T04:06:51.634Z,94.30
2023-01-19T04:11:56.762Z,93.14
2023-01-19T04:16:59.971Z,92.88
2023-01-19T04:22:03.212Z,92.57
2023-01-19T04:27:08.014Z,92.16
2023-01-19T04:32:11.256Z,91.75
2023-01-19T04:37:14.515Z,91.81
2023-01-19T04:42:19.266Z,91.26
2023-01-19T04:47:22.561Z,91.03
2023-01-19T04:52:25.726Z,90.75
2023-01-19T04:57:31.284Z,90.44
2023-01-19T05:02:34.710Z,91.33
2023-01-19T05:07:37.824Z,91.49
2023-01-19T05:12:45.787Z,91.13
2023-01-19T05:17:49.139Z,91.61
2023-01-19T05:22:58.248Z,91.47
2023-01-19T05:28:04.123Z,91.92
2023-01-19T05:33:07.322Z,91.61
2023-01-19T05:38:10.708Z,92.76
2023-01-19T05:43:15.735Z,92.42
2023-01-19T05:48:18.916Z,92.52
2023-01-19T05:53:21.967Z,92.59
2023-01-19T05:58:26.532Z,93.37
2023-01-19T06:03:32.769Z,93.51
2023-01-19T06:08:35.834Z,94.08
2023-01-19T06:13:45.446Z,93.76
2023-01-19T06:18:48.717Z,93.53
2023-01-19T06:23:51.912Z,93.16
2023-01-19T06:28:56.627Z,93.14
2023-01-19T06:33:59.803Z,93.53
2023-01-19T06:39:06.120Z,93.59
2023-01-19T06:44:10.707Z,93.92
2023-01-19T06:49:19.699Z,93.75
2023-01-19T06:54:23.164Z,93.88
2023-01-19T06:59:28.173Z,94.46
2023-01-19T07:04:31.656Z,94.25
2023-01-19T07:09:34.839Z,94.39
2023-01-19T07:14:39.649Z,94.73
2023-01-19T07:19:44.537Z,94.61
2023-01-19T07:24:47.588Z,95.01
2023-01-19T07:29:53.884Z,94.51
2023-01-19T07:35:00.111Z,94.78
2023-01-19T07:40:03.347Z,94.69
2023-01-19T07:45:10.208Z,95.55
2023-01-19T07:50:14.564Z,94.43
2023-01-19T07:55:18.199Z,94.74
2023-01-19T08:00:25.321Z,95.04
2023-01-19T08:05:34.243Z,95.24
2023-01-19T08:10:37.917Z,94.70
2023-01-19T08:15:42.999Z,95.27
2023-01-19T08:20:46.327Z,94.29
2023-01-19T08:25:49.394Z,94.34
2023-01-19T08:30:55.535Z,94.91
2023-01-19T08:35:58.847Z,94.55
2023-01-19T08:41:05.600Z,94.50
2023-01-19T08:46:10.708Z,94.37
2023-01-19T08:51:15.382Z,93.52
2023-01-19T08:56:20.714Z,93.67
2023-01-19T09:01:25.575Z,93.33
2023-01-19T09:06:28.851Z,93.07
2023-01-19T09:11:32.065Z,92.43
2023-01-19T09:16:36.850Z,91.85
2023-01-19T09:21:40.065Z,91.09
2023-01-19T09:26:43.185Z,90.85
2023-01-19T09:31:47.974Z,90.05
2023-01-19T09:36:51.062Z,90.40
2023-01-19T09:42:04.003Z,89.21
2023-01-19T09:47:15.499Z,88.59
2023-01-19T09:52:23.402Z,88.37
2023-01-19T09:57:28.133Z,88.22
2023-01-19T10:02:38.140Z,87.19
2023-01-19T10:07:54.774Z,87.72
2023-01-19T10:13:21.871Z,86.71
2023-01-19T10:18:34.603Z,86.53
2023-01-19T10:23:42.474Z,86.49
2023-01-19T10:28:49.274Z,85.62
2023-01-19T10:33:56.797Z,84.60
2023-01-19T10:39:19.771Z,82.34
2023-01-19T10:44:27.975Z,82.80
2023-01-19T10:49:39.371Z,82.50
2023-01-19T10:54:48.237Z,82.83
2023-01-19T10:59:51.984Z,82.67
2023-01-19T11:04:59.172Z,82.62
2023-01-19T11:10:24.225Z,82.89
2023-01-19T11:15:32.860Z,82.25
2023-01-19T11:20:49.417Z,81.69
2023-01-19T11:25:56.182Z,81.80
2023-01-19T11:31:01.293Z,81.85
2023-01-19T11:36:16.259Z,81.32
2023-01-19T11:41:28.123Z,81.74
2023-01-19T11:46:35.409Z,81.33
2023-01-19T11:51:50.767Z,81.19
2023-01-19T11:56:56.978Z,82.01
2023-01-19T12:02:05.619Z,81.40
2023-01-19T12:07:14.027Z,80.63
2023-01-19T12:12:28.283Z,80.91
2023-01-19T12:17:35.965Z,80.30
2023-01-19T12:22:50.810Z,80.25
2023-01-19T12:27:55.544Z,80.07
2023-01-19T12:33:23.673Z,78.88
2023-01-19T12:38:45.853Z,79.26
2023-01-19T12:43:51.182Z,79.80
2023-01-19T12:48:54.987Z,79.59
2023-01-19T12:54:01.267Z,79.40
2023-01-19T12:59:06.170Z,78.75
2023-01-19T13:04:31.796Z,78.78
2023-01-19T13:09:38.244Z,79.34
2023-01-19T13:14:43.302Z,79.03
2023-01-19T13:19:51.345Z,78.72
2023-01-19T13:25:25.502Z,78.60
2023-01-19T13:30:31.834Z,78.63
2023-01-19T13:35:35.793Z,78.45
2023-01-19T13:40:40.782Z,77.79
2023-01-19T13:45:51.110Z,78.30
2023-01-19T13:51:04.262Z,77.76
2023-01-19T13:56:21.854Z,78.75
2023-01-19T14:01:28.739Z,78.34
2023-01-19T14:06:37.305Z,78.03
2023-01-19T14:11:41.880Z,78.58
2023-01-19T14:16:47.230Z,78.74
2023-01-19T14:22:00.709Z,78.66
2023-01-19T14:27:22.807Z,79.09
2023-01-19T14:32:27.976Z,78.88
2023-01-19T14:37:34.763Z,78.75
2023-01-19T14:42:46.154Z,78.88
2023-01-19T14:47:57.856Z,79.11
2023-01-19T14:53:04.351Z,78.93
2023-01-19T14:58:15.822Z,79.73
2023-01-19T15:03:24.979Z,79.42
2023-01-19T15:08:33.518Z,79.02
2023-01-19T15:13:39.716Z,79.56
2023-01-19T15:18:42.870Z,79.31
2023-01-19T15:23:46.257Z,79.14
2023-01-19T15:28:51.425Z,79.66
2023-01-19T15:33:54.712Z,79.37
2023-01-19T15:38:58.158Z,78.94
2023-01-19T15:44:02.575Z,79.46
2023-01-19T15:49:20.984Z,79.87
2023-01-19T15:54:24.074Z,79.60
2023-01-19T15:59:28.679Z,80.20
2023-01-19T16:04:31.849Z,80.65
2023-01-19T16:09:35.058Z,80.05
2023-01-19T16:14:40.176Z,80.91
2023-01-19T16:19:43.234Z,80.59
2023-01-19T16:24:46.393Z,80.81
2023-01-19T16:29:51.248Z,81.07
2023-01-19T16:34:57.440Z,81.30
2023-01-19T16:40:00.912Z,81.65
2023-01-19T16:45:06.098Z,81.57
2023-01-19T16:50:12.650Z,82.03
2023-01-19T16:55:16.238Z,83.28
2023-01-19T17:00:24.395Z,83.79
2023-01-19T17:05:29.336Z,84.23
2023-01-19T17:10:32.675Z,84.43
2023-01-19T17:15:37.983Z,84.74
2023-01-19T17:20:41.026Z,84.62
2023-01-19T17:25:44.042Z,85.08
2023-01-19T17:30:51.592Z,85.49
2023-01-19T17:35:56.164Z,85.84
2023-01-19T17:41:03.011Z,85.91
2023-01-19T17:46:07.895Z,85.66
2023-01-19T17:51:13.548Z,85.93
2023-01-19T17:56:18.647Z,85.77
2023-01-19T18:01:28.759Z,85.79
2023-01-19T18:06:36.756Z,86.13
2023-01-19T18:11:39.910Z,86.91
2023-01-19T18:16:44.347Z,86.60
2023-01-19T18:21:48.903Z,87.35
2023-01-19T18:26:55.522Z,87.47
2023-01-19T18:32:00.545Z,87.94
2023-01-19T18:37:03.717Z,89.11
2023-01-19T18:42:16.291Z,90.43
2023-01-19T18:47:20.798Z,91.42
2023-01-19T18:52:27.781Z,91.97
2023-01-19T18:57:31.090Z,92.30
2023-01-19T19:02:35.871Z,94.14
2023-01-19T19:07:45.558Z,94.95
2023-01-19T19:12:51.105Z,96.15
2023-01-19T19:17:56.281Z,96.60
2023-01-19T19:22:59.659Z,97.42
2023-01-19T19:28:02.982Z,97.90
2023-01-19T19:33:07.957Z,98.79
2023-01-19T19:38:11.238Z,99.32
2023-01-19T19:43:14.467Z,100.00
2023-01-19T19:48:19.200Z,100.00
2023-01-19T19:53:23.009Z,100.00
2023-01-19T19:58:27.463Z,100.00
2023-01-19T20:03:32.871Z,100.00
2023-01-19T20:08:37.562Z,100.00
2023-01-19T20:13:42.956Z,100.00
2023-01-19T20:18:51.251Z,100.00
2023-01-19T20:23:55.184Z,100.00
2023-01-19T20:29:00.887Z,100.00
2023-01-19T20:34:08.875Z,100.00
2023-01-19T20:39:12.817Z,100.00
2023-01-19T20:44:18.923Z,100.00
2023-01-19T20:49:24.075Z,100.00
2023-01-19T20:54:30.231Z,100.00
2023-01-19T20:59:34.342Z,100.00
2023-01-19T21:04:39.170Z,100.00
2023-01-19T21:09:43.309Z,100.00
2023-01-19T21:14:46.472Z,100.00
2023-01-19T21:19:51.175Z,100.00
2023-01-19T21:24:54.523Z,100.00
2023-01-19T21:29:58.727Z,100.00
2023-01-19T21:35:03.680Z,100.00
2023-01-19T21:40:08.449Z,100.00
2023-01-19T21:45:12.192Z,100.00
2023-01-19T21:50:19.553Z,100.00
2023-01-19T21:55:22.750Z,100.00
2023-01-19T22:00:26.477Z,100.00
2023-01-19T22:05:31.226Z,100.00
2023-01-19T22:10:37.299Z,100.00
2023-01-19T22:15:40.580Z,100.00
2023-01-19T22:20:45.398Z,100.00
2023-01-19T22:25:48.673Z,100.00
2023-01-19T22:30:52.035Z,100.00
2023-01-19T22:35:56.843Z,100.00
2023-01-19T22:41:00.141Z,100.00
2023-01-19T22:46:04.258Z,100.00
2023-01-19T22:51:09.345Z,100.00
2023-01-19T22:56:14.835Z,100.00
2023-01-19T23:01:24.444Z,100.00
2023-01-19T23:06:32.425Z,100.00
2023-01-19T23:11:37.679Z,100.00
2023-01-19T23:16:41.264Z,100.00
2023-01-19T23:21:46.934Z,100.00
2023-01-19T23:26:50.865Z,100.00
2023-01-19T23:31:56.544Z,100.00
2023-01-19T23:37:03.974Z,100.00
2023-01-19T23:42:08.261Z,100.00
2023-01-19T23:47:11.568Z,100.00
2023-01-19T23:52:16.247Z,100.00
2023-01-19T23:57:19.442Z,100.00
